Time;durP1;ratioP1;P1;durP2;ratioP2;P2;SDS_P1;SDS_P2;PMS_P1;PMS_P2;Temp;Humidity;BMP_temperature;BMP_pressure;BME280_temperature;BME280_humidity;BME280_pressure;Samples;Min_cycle;Max_cycle;Signal;HPM_P1;HPM_P2
2021/12/10 00:00:49;;;;;;;170.55;54.63;;;6.40;99.90;;;;;;5076279;28;20029;-93
2021/12/10 00:03:30;;;;;;;156.40;50.85;;;6.40;99.90;;;;;;5076275;28;20028;-92
2021/12/10 00:06:16;;;;;;;148.43;49.30;;;6.40;99.90;;;;;;5076152;28;20048;-93
2021/12/10 00:08:46;;;;;;;144.32;51.97;;;6.50;99.90;;;;;;5076584;28;20382;-93
2021/12/10 00:11:24;;;;;;;145.30;50.72;;;6.40;99.90;;;;;;5076433;28;20020;-93
2021/12/10 00:13:50;;;;;;;139.68;50.15;;;6.40;99.90;;;;;;5076279;28;20055;-93
2021/12/10 00:16:18;;;;;;;130.55;47.00;;;6.40;99.90;;;;;;5076198;28;20047;-93
2021/12/10 00:18:51;;;;;;;141.25;50.17;;;6.40;99.90;;;;;;5076324;28;20052;-93
2021/12/10 00:21:18;;;;;;;140.70;47.22;;;6.40;99.90;;;;;;5076111;28;20040;-93
2021/12/10 00:23:48;;;;;;;139.20;48.25;;;6.40;99.90;;;;;;5076129;28;20028;-93
2021/12/10 00:26:14;;;;;;;125.80;44.70;;;6.50;99.90;;;;;;5075867;28;20052;-93
2021/12/10 00:28:40;;;;;;;161.52;49.80;;;6.50;99.90;;;;;;5076327;28;20475;-93
2021/12/10 00:31:30;;;;;;;125.70;45.72;;;6.50;99.90;;;;;;5076176;28;20406;-93
2021/12/10 00:34:24;;;;;;;136.13;47.42;;;6.50;99.90;;;;;;5075987;28;20058;-93
2021/12/10 00:36:53;;;;;;;137.85;47.85;;;6.40;99.90;;;;;;5073051;28;20035;-93
2021/12/10 00:39:26;;;;;;;144.88;48.40;;;6.50;99.90;;;;;;5075744;28;20024;-92
2021/12/10 00:41:53;;;;;;;129.65;45.90;;;6.50;99.90;;;;;;5075822;28;20058;-93
2021/12/10 00:44:20;;;;;;;142.85;46.10;;;6.50;99.90;;;;;;5075754;28;20356;-93
2021/12/10 00:46:46;;;;;;;161.50;49.13;;;6.50;99.90;;;;;;5075406;28;20029;-93
2021/12/10 00:49:12;;;;;;;177.93;52.90;;;6.50;99.90;;;;;;5075388;28;20024;-93
2021/12/10 00:51:39;;;;;;;185.85;53.42;;;6.50;99.90;;;;;;5075401;28;20462;-93
2021/12/10 00:54:07;;;;;;;240.48;63.88;;;6.50;99.90;;;;;;5075487;28;20021;-93
2021/12/10 00:56:33;;;;;;;260.50;67.75;;;6.50;99.90;;;;;;5075634;28;20123;-93
2021/12/10 00:59:00;;;;;;;234.13;67.18;;;6.50;99.90;;;;;;5075898;28;20024;-93
2021/12/10 01:01:29;;;;;;;251.77;74.55;;;6.50;99.90;;;;;;5075481;28;20475;-92
2021/12/10 01:04:04;;;;;;;341.30;93.03;;;6.50;99.90;;;;;;5075218;28;20035;-93
2021/12/10 01:06:30;;;;;;;338.55;106.43;;;6.60;99.90;;;;;;5074789;28;20045;-93
2021/12/10 01:09:04;;;;;;;369.27;114.68;;;6.60;99.90;;;;;;5075146;28;20024;-93
2021/12/10 01:11:40;;;;;;;331.95;115.97;;;6.50;99.90;;;;;;5075087;28;20016;-93
2021/12/10 01:14:19;;;;;;;407.75;139.75;;;6.60;99.90;;;;;;5075191;28;20028;-93
2021/12/10 01:25:11;;;;;;;259.65;84.72;;;6.60;99.90;;;;;;5076510;28;20070;-93
2021/12/10 01:27:39;;;;;;;205.38;67.03;;;6.60;99.90;;;;;;5075076;28;20059;-93
2021/12/10 01:30:17;;;;;;;191.13;62.65;;;6.60;99.90;;;;;;5074691;28;20031;-93
2021/12/10 01:32:49;;;;;;;224.18;64.78;;;6.70;99.90;;;;;;5074870;28;20020;-93
2021/12/10 01:35:21;;;;;;;222.60;62.92;;;6.70;99.90;;;;;;5074662;28;20025;-93
2021/12/10 01:37:51;;;;;;;242.40;67.20;;;6.70;99.90;;;;;;5074593;28;20069;-92
2021/12/10 01:40:20;;;;;;;293.58;76.78;;;6.70;99.90;;;;;;5074667;28;20028;-93
2021/12/10 01:42:50;;;;;;;286.77;72.30;;;6.60;99.90;;;;;;5074660;28;20028;-92
2021/12/10 01:45:23;;;;;;;245.67;64.13;;;6.60;99.90;;;;;;5074734;28;20112;-92
2021/12/10 01:48:03;;;;;;;266.40;70.80;;;6.60;99.90;;;;;;5068295;28;20031;-93
2021/12/10 01:50:33;;;;;;;288.10;75.88;;;6.70;99.90;;;;;;5074711;28;20028;-93
2021/12/10 01:53:03;;;;;;;328.27;89.97;;;6.70;99.90;;;;;;5074333;28;20082;-93
2021/12/10 01:55:31;;;;;;;334.52;92.05;;;6.70;99.90;;;;;;5074713;28;20029;-93
2021/12/10 01:57:58;;;;;;;261.17;82.30;;;6.70;99.90;;;;;;5074846;28;20082;-92
2021/12/10 02:00:29;;;;;;;279.35;82.57;;;6.80;99.90;;;;;;5074304;28;20463;-93
2021/12/10 02:02:54;;;;;;;;;;;6.70;99.90;;;;;;5074176;28;20037;-93
2021/12/10 02:05:21;;;;;;;185.35;56.40;;;6.60;99.90;;;;;;5074067;28;19970;-92
2021/12/10 02:07:47;;;;;;;172.75;55.70;;;6.70;99.90;;;;;;5073998;28;20104;-93
2021/12/10 02:10:17;;;;;;;233.07;74.43;;;6.70;99.90;;;;;;5073937;28;20489;-92
2021/12/10 02:12:43;;;;;;;228.87;67.43;;;6.70;99.90;;;;;;5074473;28;20024;-93
2021/12/10 02:15:11;;;;;;;213.43;73.68;;;6.70;99.90;;;;;;5073639;28;20349;-93
2021/12/10 02:17:45;;;;;;;251.93;76.15;;;6.70;99.90;;;;;;5074144;28;20021;-93
2021/12/10 02:20:52;;;;;;;261.25;86.97;;;6.70;99.90;;;;;;5073994;28;20029;-93
2021/12/10 02:23:18;;;;;;;277.48;77.95;;;6.70;99.90;;;;;;5073751;28;20108;-92
2021/12/10 02:25:44;;;;;;;239.48;71.05;;;6.60;99.90;;;;;;5073754;28;20120;-93
2021/12/10 02:28:12;;;;;;;234.38;66.00;;;6.60;99.90;;;;;;5073765;28;20111;-93
2021/12/10 02:30:39;;;;;;;272.38;68.32;;;6.70;99.90;;;;;;5073487;28;20021;-94
2021/12/10 02:33:06;;;;;;;251.10;66.00;;;6.70;99.90;;;;;;5073742;28;20052;-93
2021/12/10 02:35:33;;;;;;;287.77;73.18;;;6.70;99.90;;;;;;5073645;28;20378;-93
2021/12/10 02:37:59;;;;;;;249.85;65.13;;;6.70;99.90;;;;;;5073550;28;20023;-94
2021/12/10 02:40:27;;;;;;;270.63;67.35;;;6.60;99.90;;;;;;5073706;28;20028;-93
2021/12/10 02:42:55;;;;;;;264.13;64.10;;;6.70;99.90;;;;;;5073611;28;20027;-93
2021/12/10 02:45:23;;;;;;;265.85;65.53;;;6.70;99.90;;;;;;5073492;28;20139;-93
2021/12/10 02:47:50;;;;;;;192.65;53.40;;;6.70;99.90;;;;;;5073746;28;20028;-93
2021/12/10 02:50:19;;;;;;;170.40;46.80;;;6.60;99.90;;;;;;5073496;28;20017;-93
2021/12/10 02:52:45;;;;;;;154.90;43.92;;;6.70;99.90;;;;;;5073520;28;20021;-93
2021/12/10 02:55:14;;;;;;;215.07;78.88;;;6.70;99.90;;;;;;5073392;28;20017;-93
2021/12/10 02:57:41;;;;;;;303.15;137.05;;;6.60;99.90;;;;;;5073196;28;20028;-93
2021/12/10 03:00:11;;;;;;;339.50;148.98;;;6.60;99.90;;;;;;5073321;28;20024;-92
2021/12/10 03:02:37;;;;;;;294.70;136.90;;;6.60;99.90;;;;;;5073185;28;20020;-93
2021/12/10 03:05:07;;;;;;;268.15;104.88;;;6.60;99.90;;;;;;5073294;28;20032;-93
2021/12/10 03:07:33;;;;;;;229.65;75.28;;;6.60;99.90;;;;;;5073053;28;20056;-93
2021/12/10 03:09:59;;;;;;;210.00;69.15;;;6.60;99.90;;;;;;5073708;28;20079;-93
2021/12/10 03:12:25;;;;;;;183.18;66.63;;;6.60;99.90;;;;;;5073452;28;20024;-93
2021/12/10 03:14:55;;;;;;;159.05;59.47;;;6.60;99.90;;;;;;5072831;28;20425;-93
2021/12/10 03:17:28;;;;;;;135.48;58.15;;;6.60;99.90;;;;;;5072866;28;20029;-93
2021/12/10 03:19:55;;;;;;;88.75;40.55;;;6.60;99.90;;;;;;5057247;28;20493;-93
2021/12/10 03:22:23;;;;;;;79.00;34.03;;;6.50;99.90;;;;;;5073145;28;20086;-92
2021/12/10 03:24:51;;;;;;;91.25;33.38;;;6.50;99.90;;;;;;5072839;28;20079;-94
2021/12/10 03:27:17;;;;;;;87.30;31.63;;;6.50;99.90;;;;;;5073369;28;20116;-93
2021/12/10 03:29:44;;;;;;;123.90;37.65;;;6.50;99.90;;;;;;5060845;28;20129;-92
2021/12/10 03:32:14;;;;;;;166.98;44.55;;;6.50;99.90;;;;;;5077347;28;20034;-93
2021/12/10 03:34:40;;;;;;;158.50;46.97;;;6.50;99.90;;;;;;5077752;28;20105;-93
2021/12/10 03:37:07;;;;;;;224.40;56.47;;;6.50;99.90;;;;;;5077271;28;20033;-94
2021/12/10 03:39:33;;;;;;;204.70;57.45;;;6.50;99.90;;;;;;5077890;28;20078;-93
2021/12/10 03:42:00;;;;;;;132.20;38.75;;;6.50;99.90;;;;;;5077239;28;20028;-93
2021/12/10 03:44:27;;;;;;;94.03;31.02;;;6.50;99.90;;;;;;5077026;28;20033;-93
2021/12/10 03:46:54;;;;;;;77.20;26.77;;;6.50;99.90;;;;;;5042938;28;20036;-93
2021/12/10 03:49:20;;;;;;;93.70;27.23;;;6.50;99.90;;;;;;5076379;28;20025;-92
2021/12/10 03:51:47;;;;;;;74.45;25.25;;;6.40;99.90;;;;;;5078169;28;20481;-92
2021/12/10 03:54:17;;;;;;;75.00;26.10;;;6.40;99.90;;;;;;5060346;28;20029;-92
2021/12/10 03:56:44;;;;;;;95.30;31.10;;;6.50;99.90;;;;;;5060167;28;20028;-93
2021/12/10 03:59:14;;;;;;;84.15;29.95;;;6.40;99.90;;;;;;5076983;28;20061;-93
2021/12/10 04:01:44;;;;;;;85.75;28.63;;;6.40;99.90;;;;;;5076717;28;20025;-93
2021/12/10 04:04:15;;;;;;;101.35;31.73;;;6.40;99.90;;;;;;5076578;28;20029;-93
2021/12/10 04:06:40;;;;;;;;;;;6.30;99.90;;;;;;5076266;28;20048;-93
2021/12/10 04:09:07;;;;;;;84.25;28.67;;;6.30;99.90;;;;;;5077430;28;19912;-93
2021/12/10 04:11:34;;;;;;;81.72;27.45;;;6.10;99.90;;;;;;5076147;28;20024;-93
2021/12/10 04:14:00;;;;;;;84.85;27.85;;;6.10;99.90;;;;;;5060505;28;20048;-93
2021/12/10 04:16:28;;;;;;;88.15;28.08;;;6.10;99.90;;;;;;5076088;28;20026;-93
2021/12/10 04:18:57;;;;;;;81.22;25.92;;;6.00;99.90;;;;;;5059433;28;20457;-93
2021/12/10 04:21:26;;;;;;;72.78;26.55;;;6.10;99.90;;;;;;5076138;28;20025;-93
2021/12/10 04:23:52;;;;;;;73.57;25.73;;;6.00;99.90;;;;;;5076482;28;20424;-93
2021/12/10 04:26:21;;;;;;;83.65;26.83;;;5.90;99.90;;;;;;5059304;28;20071;-93
2021/12/10 04:28:47;;;;;;;79.75;26.33;;;5.90;99.90;;;;;;5077073;28;20437;-93
2021/12/10 04:31:13;;;;;;;76.88;25.80;;;5.80;99.90;;;;;;5059187;28;20021;-93
2021/12/10 04:33:39;;;;;;;86.78;28.02;;;5.70;99.90;;;;;;5075981;28;20116;-93
2021/12/10 04:36:07;;;;;;;83.47;30.33;;;5.60;99.90;;;;;;5077062;28;20060;-94
2021/12/10 04:38:35;;;;;;;91.38;29.42;;;5.50;99.90;;;;;;5075295;28;20047;-93
2021/12/10 04:41:05;;;;;;;99.07;32.53;;;5.50;99.90;;;;;;5075614;28;20035;-93
2021/12/10 04:43:32;;;;;;;;;;;5.40;99.90;;;;;;5060125;28;20031;-93
2021/12/10 04:45:59;;;;;;;103.65;33.97;;;5.40;99.90;;;;;;5075906;28;19913;-93
2021/12/10 04:48:27;;;;;;;109.80;33.80;;;5.40;99.90;;;;;;5075435;28;20020;-92
2021/12/10 04:50:53;;;;;;;105.07;34.60;;;5.30;99.90;;;;;;5075860;28;20040;-93
2021/12/10 04:53:19;;;;;;;95.85;32.80;;;5.20;99.90;;;;;;5084232;28;20020;-93
2021/12/10 04:55:45;;;;;;;121.43;37.92;;;5.30;99.90;;;;;;5076471;28;20028;-92
2021/12/10 04:58:11;;;;;;;108.28;36.88;;;5.30;99.90;;;;;;5058847;28;20538;-93
2021/12/10 05:00:43;;;;;;;129.52;42.80;;;5.30;99.90;;;;;;5075206;28;20020;-92
2021/12/10 05:03:10;;;;;;;123.30;42.25;;;5.30;99.90;;;;;;5059608;28;20024;-93
2021/12/10 05:05:39;;;;;;;119.53;42.42;;;5.40;99.90;;;;;;5075750;28;20028;-92
2021/12/10 05:08:06;;;;;;;113.18;43.42;;;5.40;99.90;;;;;;5077006;28;20028;-93
2021/12/10 05:10:34;;;;;;;116.20;41.58;;;5.40;99.90;;;;;;5059278;28;20070;-92
2021/12/10 05:13:00;;;;;;;126.47;41.63;;;5.40;99.90;;;;;;5077565;28;20016;-92
2021/12/10 05:15:30;;;;;;;115.03;38.50;;;5.40;99.90;;;;;;5076173;28;20498;-92
2021/12/10 05:17:58;;;;;;;115.38;36.58;;;5.40;99.90;;;;;;5076482;28;20110;-93
2021/12/10 05:20:31;;;;;;;107.28;35.78;;;5.40;99.90;;;;;;5075764;28;20119;-93
2021/12/10 05:22:58;;;;;;;110.95;35.03;;;5.40;99.90;;;;;;5079260;28;20037;-92
2021/12/10 05:25:27;;;;;;;101.70;33.00;;;5.30;99.90;;;;;;5077156;28;20020;-92
2021/12/10 05:27:53;;;;;;;104.13;33.88;;;5.30;99.90;;;;;;5058690;28;20029;-92
2021/12/10 05:30:22;;;;;;;99.47;33.28;;;5.30;99.90;;;;;;5076435;28;20021;-92
2021/12/10 05:32:49;;;;;;;109.72;34.33;;;5.30;99.90;;;;;;5059568;28;20060;-92
2021/12/10 05:35:16;;;;;;;108.60;34.08;;;5.30;99.90;;;;;;5058792;28;20528;-92
2021/12/10 05:37:42;;;;;;;110.03;35.60;;;5.20;99.90;;;;;;5076707;28;20028;-93
2021/12/10 05:40:12;;;;;;;106.82;35.03;;;5.10;99.90;;;;;;5075938;28;20033;-91
2021/12/10 05:42:39;;;;;;;116.03;35.80;;;5.10;99.90;;;;;;5077657;28;20537;-93
2021/12/10 05:45:06;;;;;;;111.45;36.58;;;5.20;99.90;;;;;;5077103;28;20059;-92
2021/12/10 05:47:32;;;;;;;131.75;39.25;;;5.20;99.90;;;;;;5074978;28;20032;-92
2021/12/10 05:49:59;;;;;;;118.20;38.03;;;5.20;99.90;;;;;;5074917;28;20025;-92
2021/12/10 05:52:25;;;;;;;125.60;37.45;;;5.30;99.90;;;;;;5077694;28;20028;-92
2021/12/10 05:54:52;;;;;;;133.18;39.28;;;5.40;99.90;;;;;;5081370;28;20471;-93
2021/12/10 05:57:21;;;;;;;153.57;41.58;;;5.40;99.90;;;;;;5076859;28;20474;-92
2021/12/10 05:59:47;;;;;;;129.82;37.75;;;5.30;99.90;;;;;;5059983;28;20092;-93
2021/12/10 06:02:13;;;;;;;119.32;37.10;;;5.30;99.90;;;;;;5077595;28;20028;-93
2021/12/10 06:04:42;;;;;;;143.88;39.00;;;5.40;99.90;;;;;;5079252;28;20024;-94
2021/12/10 06:07:08;;;;;;;142.45;38.42;;;5.40;99.90;;;;;;5075467;28;20064;-93
2021/12/10 06:09:35;;;;;;;152.70;40.03;;;5.40;99.90;;;;;;5060555;28;20028;-93
2021/12/10 06:12:03;;;;;;;132.90;39.95;;;5.40;99.90;;;;;;5077450;28;20073;-93
2021/12/10 06:14:29;;;;;;;152.85;43.70;;;5.40;99.90;;;;;;5059711;28;20035;-93
2021/12/10 06:16:55;;;;;;;147.45;39.15;;;5.40;99.90;;;;;;5076338;28;20103;-93
2021/12/10 06:19:23;;;;;;;131.35;37.40;;;5.40;99.90;;;;;;5076649;28;20129;-93
2021/12/10 06:21:51;;;;;;;132.32;36.72;;;5.40;99.90;;;;;;5075785;28;20020;-93
2021/12/10 06:24:17;;;;;;;120.63;34.90;;;5.50;99.90;;;;;;5060100;28;20084;-93
2021/12/10 06:26:42;;;;;;;127.57;36.17;;;5.50;99.90;;;;;;5061157;28;20074;-93
2021/12/10 06:29:08;;;;;;;120.57;35.85;;;5.40;99.90;;;;;;5076383;28;20082;-93
2021/12/10 06:31:34;;;;;;;125.88;36.58;;;5.50;99.90;;;;;;5075820;28;20467;-92
2021/12/10 06:34:02;;;;;;;118.88;33.70;;;5.40;99.90;;;;;;5077332;28;20023;-93
2021/12/10 06:36:28;;;;;;;108.03;33.78;;;5.40;99.90;;;;;;5060319;28;20547;-94
2021/12/10 06:38:55;;;;;;;121.53;36.13;;;5.40;99.90;;;;;;5076388;28;20036;-93
2021/12/10 06:41:21;;;;;;;122.60;35.95;;;5.50;99.90;;;;;;5075033;28;20028;-94
2021/12/10 06:43:49;;;;;;;119.30;36.95;;;5.40;99.90;;;;;;5075949;28;20020;-93
2021/12/10 06:46:17;;;;;;;;;;;5.50;99.90;;;;;;5077312;28;20020;-94
2021/12/10 06:48:44;;;;;;;132.20;39.97;;;5.50;99.90;;;;;;5075535;28;19905;-93
2021/12/10 06:51:20;;;;;;;121.28;38.58;;;5.50;99.90;;;;;;5076550;28;20051;-93
2021/12/10 06:53:46;;;;;;;121.32;38.63;;;5.50;99.90;;;;;;5071550;28;20020;-93
2021/12/10 06:56:15;;;;;;;121.32;39.40;;;5.50;99.90;;;;;;5059934;28;20029;-92
2021/12/10 06:58:42;;;;;;;113.78;37.22;;;5.50;99.90;;;;;;5076553;28;20119;-92
2021/12/10 07:01:17;;;;;;;117.65;39.55;;;5.60;99.90;;;;;;5077298;28;20033;-93
2021/12/10 07:03:45;;;;;;;110.18;38.65;;;5.50;99.90;;;;;;5077398;28;20537;-93
2021/12/10 07:06:12;;;;;;;108.55;37.50;;;5.50;99.90;;;;;;5059432;28;20407;-93
2021/12/10 07:08:41;;;;;;;105.90;37.10;;;5.50;99.90;;;;;;5078719;28;20028;-92
2021/12/10 07:11:10;;;;;;;113.05;39.13;;;5.60;99.90;;;;;;5079227;28;20463;-92
2021/12/10 07:13:38;;;;;;;93.05;36.30;;;5.60;99.90;;;;;;5080609;28;20020;-93
2021/12/10 07:16:06;;;;;;;98.22;37.92;;;5.70;99.90;;;;;;5076668;28;20049;-94
2021/12/10 07:18:33;;;;;;;105.35;37.55;;;5.70;99.90;;;;;;5058386;28;20090;-93
2021/12/10 07:21:00;;;;;;;100.03;38.97;;;5.70;99.90;;;;;;5074377;28;20032;-93
2021/12/10 07:23:26;;;;;;;103.43;40.47;;;5.80;99.90;;;;;;5076468;28;20044;-93
2021/12/10 07:25:52;;;;;;;96.25;39.92;;;5.80;99.90;;;;;;5076205;28;20037;-93
2021/12/10 07:28:20;;;;;;;90.07;40.22;;;5.80;99.90;;;;;;5077493;28;20080;-93
2021/12/10 07:30:48;;;;;;;92.22;38.35;;;5.80;99.90;;;;;;5059771;28;20040;-93
2021/12/10 07:33:16;;;;;;;87.25;37.92;;;5.80;99.90;;;;;;5077987;28;20054;-93
2021/12/10 07:35:43;;;;;;;86.38;36.92;;;5.80;99.90;;;;;;5060156;28;20025;-93
2021/12/10 07:38:12;;;;;;;92.13;35.97;;;5.80;99.90;;;;;;5076993;28;20032;-93
2021/12/10 07:40:42;;;;;;;83.20;34.30;;;5.80;99.90;;;;;;5060708;28;20024;-93
2021/12/10 07:43:09;;;;;;;88.95;33.72;;;5.70;99.90;;;;;;5078159;28;20024;-92
2021/12/10 07:45:38;;;;;;;81.45;32.65;;;5.70;99.90;;;;;;5061272;28;20106;-93
2021/12/10 07:48:08;;;;;;;84.50;33.67;;;5.70;99.90;;;;;;5075151;28;20025;-93
2021/12/10 07:50:39;;;;;;;86.10;34.63;;;5.70;99.90;;;;;;5075710;28;20029;-91
2021/12/10 07:53:06;;;;;;;86.32;33.75;;;5.70;99.90;;;;;;5058689;28;20033;-92
2021/12/10 07:55:34;;;;;;;91.63;36.80;;;5.70;99.90;;;;;;5059526;28;20029;-92
2021/12/10 07:58:02;;;;;;;98.75;36.95;;;5.60;99.90;;;;;;5074907;28;20055;-92
2021/12/10 08:00:31;;;;;;;89.00;35.13;;;5.70;99.90;;;;;;5076520;28;20036;-92
2021/12/10 08:02:58;;;;;;;99.70;36.53;;;5.60;99.90;;;;;;5058608;28;20059;-92
2021/12/10 08:05:25;;;;;;;91.65;37.78;;;5.60;99.90;;;;;;5075448;28;20040;-91
2021/12/10 08:07:55;;;;;;;96.47;39.03;;;5.60;99.90;;;;;;5074221;28;20079;-92
2021/12/10 08:10:22;;;;;;;101.07;43.45;;;5.60;99.90;;;;;;5059065;28;20025;-92
2021/12/10 08:12:49;;;;;;;117.95;44.67;;;5.60;99.90;;;;;;5075573;28;20025;-92
2021/12/10 08:15:16;;;;;;;89.97;41.50;;;5.70;99.90;;;;;;5060483;28;20122;-92
2021/12/10 08:17:44;;;;;;;112.88;44.33;;;5.60;99.90;;;;;;5080486;28;20470;-90
2021/12/10 08:20:18;;;;;;;103.78;43.15;;;5.60;99.90;;;;;;5078497;28;20029;-92
2021/12/10 08:22:45;;;;;;;110.97;44.47;;;5.70;99.90;;;;;;5081404;28;20133;-92
2021/12/10 08:25:12;;;;;;;103.20;42.97;;;5.60;99.90;;;;;;5078413;28;20028;-92
2021/12/10 08:27:38;;;;;;;110.15;44.90;;;5.70;99.90;;;;;;5080607;28;20036;-91
2021/12/10 08:30:10;;;;;;;105.28;44.78;;;5.80;99.90;;;;;;5076750;28;20021;-91
2021/12/10 08:32:39;;;;;;;104.13;43.78;;;5.80;99.90;;;;;;5059870;28;20054;-91
2021/12/10 08:35:09;;;;;;;105.60;49.87;;;5.80;99.90;;;;;;5077095;28;20475;-92
2021/12/10 08:37:35;;;;;;;108.43;44.53;;;5.90;99.90;;;;;;5076196;28;20028;-89
2021/12/10 08:40:01;;;;;;;105.22;42.75;;;6.00;99.90;;;;;;5075601;28;20021;-91
2021/12/10 08:42:27;;;;;;;106.78;45.63;;;6.10;99.90;;;;;;5075938;28;20029;-90
2021/12/10 08:44:53;;;;;;;106.97;45.33;;;6.10;99.90;;;;;;5042524;28;20028;-90
2021/12/10 08:47:19;;;;;;;110.97;45.67;;;6.10;99.90;;;;;;5058946;28;20061;-90
2021/12/10 08:49:45;;;;;;;113.60;46.67;;;6.00;99.90;;;;;;5059204;28;20032;-90
2021/12/10 08:52:15;;;;;;;106.30;45.20;;;6.10;99.90;;;;;;5058616;28;20112;-91
2021/12/10 08:54:43;;;;;;;103.20;42.47;;;6.20;99.90;;;;;;5076086;28;20028;-90
2021/12/10 08:57:10;;;;;;;95.78;42.33;;;6.20;99.90;;;;;;5042874;28;20101;-90
2021/12/10 08:59:38;;;;;;;106.55;43.38;;;6.20;99.90;;;;;;5042934;28;20032;-90
2021/12/10 09:02:09;;;;;;;113.28;45.28;;;6.30;99.90;;;;;;5075546;28;20035;-91
2021/12/10 09:04:36;;;;;;;98.90;41.95;;;6.30;99.90;;;;;;5059404;28;20033;-90
2021/12/10 09:07:06;;;;;;;113.25;45.15;;;6.50;99.90;;;;;;5059042;28;20048;-90
2021/12/10 09:09:34;;;;;;;99.20;42.50;;;6.40;99.90;;;;;;5058949;28;20028;-90
2021/12/10 09:12:04;;;;;;;113.38;46.05;;;6.40;99.90;;;;;;5075552;28;20029;-90
2021/12/10 09:14:38;;;;;;;109.60;45.38;;;6.30;99.90;;;;;;5075534;28;20020;-90
2021/12/10 09:17:05;;;;;;;119.57;46.53;;;6.30;99.90;;;;;;5075309;28;20021;-90
2021/12/10 09:19:31;;;;;;;120.63;46.50;;;6.40;99.90;;;;;;5058415;28;20104;-90
2021/12/10 09:21:58;;;;;;;128.43;49.55;;;6.40;99.90;;;;;;5079045;28;20024;-91
2021/12/10 09:24:24;;;;;;;109.93;46.15;;;6.40;99.90;;;;;;5060253;28;20028;-90
2021/12/10 09:26:55;;;;;;;118.30;46.20;;;6.50;99.90;;;;;;5074946;28;20056;-89
2021/12/10 09:29:23;;;;;;;128.27;47.70;;;6.60;99.90;;;;;;5076592;28;20020;-90
2021/12/10 09:31:48;;;;;;;118.28;46.72;;;6.50;99.90;;;;;;5076972;28;20027;-90
2021/12/10 09:34:16;;;;;;;117.82;45.75;;;6.50;99.90;;;;;;5058279;28;20029;-90
2021/12/10 09:36:44;;;;;;;119.22;43.30;;;6.50;99.90;;;;;;5075663;28;20028;-89
2021/12/10 09:39:13;;;;;;;114.85;43.17;;;6.50;99.90;;;;;;5058635;28;20032;-91
2021/12/10 09:41:39;;;;;;;108.93;42.30;;;6.50;99.90;;;;;;5074298;28;20478;-92
2021/12/10 09:44:08;;;;;;;121.40;44.95;;;6.50;99.90;;;;;;5074739;28;20036;-88
2021/12/10 09:46:36;;;;;;;124.93;46.13;;;6.50;99.90;;;;;;5058120;28;20032;-92
2021/12/10 09:49:04;;;;;;;118.20;44.70;;;6.40;99.90;;;;;;5075233;28;20021;-89
2021/12/10 09:51:38;;;;;;;128.00;45.72;;;6.40;99.90;;;;;;5074537;28;20052;-89
2021/12/10 09:54:11;;;;;;;124.55;45.95;;;6.50;99.90;;;;;;5074772;28;20028;-89
2021/12/10 09:56:45;;;;;;;128.38;47.88;;;6.50;99.90;;;;;;5075540;28;20028;-89
2021/12/10 09:59:14;;;;;;;124.80;45.38;;;6.40;99.90;;;;;;5057899;28;20102;-89
2021/12/10 10:01:44;;;;;;;132.63;46.90;;;6.40;99.90;;;;;;5058779;28;20056;-92
2021/12/10 10:04:11;;;;;;;140.07;49.47;;;6.40;99.90;;;;;;5074673;28;20107;-91
2021/12/10 10:06:43;;;;;;;154.65;49.95;;;6.40;99.90;;;;;;5074262;28;20123;-91
2021/12/10 10:09:17;;;;;;;141.70;49.10;;;6.30;99.90;;;;;;5074470;28;20070;-92
2021/12/10 10:11:44;;;;;;;166.13;57.72;;;6.30;99.90;;;;;;5057439;28;20028;-92
2021/12/10 10:14:10;;;;;;;173.85;60.20;;;6.30;99.90;;;;;;5058148;28;20028;-88
2021/12/10 10:16:39;;;;;;;169.05;60.30;;;6.20;99.90;;;;;;5057370;28;20071;-91
2021/12/10 10:19:08;;;;;;;188.30;64.27;;;6.30;99.90;;;;;;5075425;28;20029;-91
2021/12/10 10:21:40;;;;;;;176.75;59.88;;;6.20;99.90;;;;;;5074398;28;20442;-91
2021/12/10 10:24:09;;;;;;;189.40;59.10;;;6.30;99.90;;;;;;5075215;28;20024;-91
2021/12/10 10:26:39;;;;;;;182.45;60.75;;;6.30;99.90;;;;;;5073663;28;20093;-91
2021/12/10 10:29:15;;;;;;;160.13;57.35;;;6.30;99.90;;;;;;5073764;28;20058;-91
2021/12/10 10:31:46;;;;;;;198.48;65.93;;;6.20;99.90;;;;;;5041120;28;20031;-91
2021/12/10 10:34:13;;;;;;;187.05;63.40;;;6.10;99.90;;;;;;5041195;28;20020;-92
2021/12/10 10:36:39;;;;;;;180.15;62.67;;;6.20;99.90;;;;;;5073479;28;20479;-90
2021/12/10 10:39:10;;;;;;;187.27;65.10;;;6.20;99.90;;;;;;5073194;28;20028;-91
2021/12/10 10:41:38;;;;;;;189.35;66.22;;;6.20;99.90;;;;;;5077338;28;20096;-91
2021/12/10 10:44:05;;;;;;;200.38;69.03;;;6.20;99.90;;;;;;5073411;28;20051;-90
2021/12/10 10:46:33;;;;;;;179.73;65.43;;;6.20;99.90;;;;;;5073835;28;20024;-91
2021/12/10 10:49:00;;;;;;;180.02;63.45;;;6.20;99.90;;;;;;5075118;28;20375;-91
2021/12/10 10:51:38;;;;;;;174.02;63.40;;;6.20;99.90;;;;;;5073377;28;20029;-90
2021/12/10 10:54:08;;;;;;;171.10;62.40;;;6.40;99.90;;;;;;5069955;28;20020;-91
2021/12/10 10:56:40;;;;;;;;;;;6.40;99.90;;;;;;5041487;28;20039;-91
2021/12/10 10:59:27;;;;;;;177.65;62.58;;;6.40;99.90;;;;;;5075275;28;19953;-92
2021/12/10 11:02:08;;;;;;;162.57;61.10;;;6.40;99.90;;;;;;5073870;28;20025;-91
2021/12/10 11:04:53;;;;;;;174.45;61.30;;;6.50;99.90;;;;;;5073589;28;20024;-92
2021/12/10 11:07:27;;;;;;;156.73;57.90;;;6.50;99.90;;;;;;5056589;28;20047;-91
2021/12/10 11:10:05;;;;;;;154.60;54.60;;;6.50;99.90;;;;;;5068952;28;20410;-92
2021/12/10 11:12:35;;;;;;;149.65;56.72;;;6.50;99.90;;;;;;5056816;28;20032;-91
2021/12/10 11:15:06;;;;;;;152.93;58.00;;;6.60;99.90;;;;;;5073227;28;20024;-92
2021/12/10 11:17:42;;;;;;;141.68;54.10;;;6.60;99.90;;;;;;5072862;28;20261;-92
2021/12/10 11:20:19;;;;;;;140.60;52.97;;;6.60;99.90;;;;;;5057930;28;20119;-92
2021/12/10 11:23:10;;;;;;;128.25;50.13;;;6.60;99.90;;;;;;5073262;28;20025;-92
2021/12/10 11:25:41;;;;;;;;;;;6.60;99.90;;;;;;5073871;28;20116;-91
2021/12/10 11:28:18;;;;;;;120.80;47.08;;;6.50;99.90;;;;;;5072657;28;19912;-92
2021/12/10 11:30:48;;;;;;;122.28;47.55;;;6.50;99.90;;;;;;5072938;28;20029;-92
2021/12/10 11:33:18;;;;;;;121.55;46.47;;;6.60;99.90;;;;;;5074800;28;20035;-91
2021/12/10 11:35:54;;;;;;;115.60;45.00;;;6.60;99.90;;;;;;5073740;28;20028;-92
2021/12/10 11:38:29;;;;;;;106.68;42.58;;;6.60;99.90;;;;;;5057310;28;20044;-91
2021/12/10 11:41:05;;;;;;;112.70;45.05;;;6.60;99.90;;;;;;5069923;28;20028;-92
2021/12/10 11:44:18;;;;;;;105.60;41.58;;;6.60;99.90;;;;;;5073625;28;20501;-91
2021/12/10 11:49:16;;;;;;;112.10;42.20;;;6.60;99.90;;;;;;5078499;28;20021;-92
2021/12/10 11:51:47;;;;;;;95.05;40.88;;;6.50;99.90;;;;;;5080135;28;20074;-92
2021/12/10 11:55:07;;;;;;;99.05;41.00;;;6.40;99.90;;;;;;5078624;28;20021;-92
2021/12/10 11:57:42;;;;;;;94.68;39.28;;;6.40;99.90;;;;;;5046349;28;20079;-91
2021/12/10 12:00:37;;;;;;;98.23;41.50;;;6.40;99.90;;;;;;5078588;28;20463;-92
2021/12/10 12:03:09;;;;;;;95.53;40.35;;;6.40;99.90;;;;;;5062135;28;20257;-92
2021/12/10 12:05:40;;;;;;;90.18;39.70;;;6.40;99.90;;;;;;5061589;28;20038;-92
2021/12/10 12:08:13;;;;;;;92.40;38.25;;;6.40;99.90;;;;;;5075553;28;20020;-92
2021/12/10 12:10:47;;;;;;;90.85;37.88;;;6.50;99.90;;;;;;5078660;28;20054;-92
2021/12/10 12:13:42;;;;;;;81.97;36.70;;;6.60;99.90;;;;;;5076861;28;20028;-92
2021/12/10 12:16:15;;;;;;;81.60;35.95;;;6.60;99.90;;;;;;5076961;28;20028;-92
2021/12/10 12:18:44;;;;;;;80.45;36.47;;;6.60;99.90;;;;;;5047842;28;20497;-92
2021/12/10 12:27:14;;;;;;;83.95;35.63;;;6.80;99.90;;;;;;5077349;28;20112;-92
2021/12/10 12:29:45;;;;;;;86.10;37.58;;;6.60;99.90;;;;;;5076906;28;20032;-92
2021/12/10 12:32:24;;;;;;;86.22;38.60;;;6.60;99.90;;;;;;5077041;28;20020;-93
2021/12/10 12:34:51;;;;;;;91.65;39.45;;;6.70;99.90;;;;;;5076452;28;20028;-91
2021/12/10 12:37:22;;;;;;;93.05;40.22;;;6.70;99.90;;;;;;5060172;28;20482;-92
2021/12/10 12:39:51;;;;;;;83.68;38.03;;;6.70;99.90;;;;;;5076865;28;20031;-92
2021/12/10 12:42:25;;;;;;;81.22;38.05;;;6.70;99.90;;;;;;5077156;28;20036;-91
2021/12/10 12:44:53;;;;;;;82.57;38.33;;;6.60;99.90;;;;;;5077051;28;20024;-92
2021/12/10 12:47:32;;;;;;;85.55;37.40;;;6.50;99.90;;;;;;5077682;28;20028;-92
2021/12/10 12:50:02;;;;;;;83.28;36.03;;;6.50;99.90;;;;;;5076670;28;20036;-92
2021/12/10 12:52:54;;;;;;;74.18;35.40;;;6.60;99.90;;;;;;5077931;28;20027;-92
2021/12/10 12:55:38;;;;;;;77.13;34.20;;;6.60;99.90;;;;;;5060334;28;20025;-92
2021/12/10 12:58:10;;;;;;;78.32;35.65;;;6.70;99.90;;;;;;5077003;28;20029;-91
2021/12/10 13:00:51;;;;;;;77.78;36.53;;;6.70;99.90;;;;;;5078525;28;20097;-91